Time;durP1;ratioP1;P1;durP2;ratioP2;P2;SDS_P1;SDS_P2;PMS_P1;PMS_P2;Temp;Humidity;BMP_temperature;BMP_pressure;BME280_temperature;BME280_humidity;BME280_pressure;Samples;Min_cycle;Max_cycle;Signal;HPM_P1;HPM_P2
2024/01/07 00:02:07;;;;;;;11.57;7.20;;;1.20;99.90;;;;;;4973111;28;20258;-71
2024/01/07 00:04:35;;;;;;;8.10;5.97;;;1.10;99.90;;;;;;4965092;28;20202;-72
2024/01/07 00:07:02;;;;;;;8.30;5.90;;;1.00;99.90;;;;;;4973532;28;20378;-69
2024/01/07 00:09:29;;;;;;;11.48;7.00;;;1.10;99.90;;;;;;4972042;28;20634;-70
2024/01/07 00:11:56;;;;;;;8.60;6.45;;;1.10;99.90;;;;;;4967999;28;20223;-70
2024/01/07 00:14:23;;;;;;;8.70;5.68;;;1.20;99.90;;;;;;4970418;28;20284;-70
2024/01/07 00:16:50;;;;;;;10.57;6.70;;;1.20;99.90;;;;;;4962372;28;20207;-69
2024/01/07 00:19:17;;;;;;;6.60;5.65;;;1.30;99.90;;;;;;4967879;28;20289;-69
2024/01/07 00:21:45;;;;;;;6.65;5.65;;;1.20;99.90;;;;;;4967962;28;20266;-70
2024/01/07 00:24:12;;;;;;;8.77;7.05;;;1.20;99.90;;;;;;4973694;28;20230;-71
2024/01/07 00:26:40;;;;;;;7.55;6.00;;;1.30;99.90;;;;;;4968049;28;20223;-71
2024/01/07 00:29:07;;;;;;;7.05;5.90;;;1.20;99.90;;;;;;4972802;28;20210;-70
2024/01/07 00:31:34;;;;;;;6.97;5.75;;;1.10;99.90;;;;;;4968805;28;20321;-70
2024/01/07 00:34:00;;;;;;;5.65;4.80;;;1.00;99.90;;;;;;4973755;28;20289;-68
2024/01/07 00:36:27;;;;;;;5.78;4.95;;;0.90;99.90;;;;;;4966048;28;20243;-71
2024/01/07 00:38:57;;;;;;;9.38;6.53;;;0.90;99.90;;;;;;4972446;28;20207;-70
2024/01/07 00:41:24;;;;;;;8.98;5.90;;;1.00;99.90;;;;;;4972842;28;20935;-70
2024/01/07 00:43:51;;;;;;;9.45;6.88;;;1.00;99.90;;;;;;4969343;28;20665;-69
2024/01/07 00:46:19;;;;;;;9.75;6.30;;;1.10;99.90;;;;;;4970135;28;20724;-70
2024/01/07 00:48:46;;;;;;;7.63;6.25;;;1.10;99.90;;;;;;4972673;28;20245;-72
2024/01/07 00:51:14;;;;;;;9.50;6.60;;;1.20;99.90;;;;;;4972210;28;20261;-71
2024/01/07 00:53:41;;;;;;;8.10;6.03;;;1.10;99.90;;;;;;4971482;28;20241;-69
2024/01/07 00:56:09;;;;;;;6.30;4.60;;;1.10;99.90;;;;;;4972665;28;20562;-70
2024/01/07 00:58:37;;;;;;;7.53;5.20;;;1.10;99.90;;;;;;4968553;28;20242;-70
2024/01/07 01:01:04;;;;;;;6.32;5.40;;;1.00;99.90;;;;;;4970107;28;20290;-70
2024/01/07 01:03:31;;;;;;;8.40;5.35;;;0.90;99.90;;;;;;4968117;28;20211;-70
2024/01/07 01:06:00;;;;;;;7.22;5.53;;;0.80;99.90;;;;;;4976284;28;20222;-69
2024/01/07 01:08:26;;;;;;;7.93;5.70;;;0.80;99.90;;;;;;4977275;28;20214;-71
2024/01/07 01:10:53;;;;;;;9.95;5.82;;;0.80;99.90;;;;;;4975337;28;20203;-69
2024/01/07 01:13:22;;;;;;;7.60;5.20;;;0.70;99.90;;;;;;4976663;28;20776;-69
2024/01/07 01:15:49;;;;;;;5.60;4.78;;;0.70;99.90;;;;;;4974505;28;20203;-71
2024/01/07 01:18:16;;;;;;;6.13;5.53;;;0.70;99.90;;;;;;4971659;28;20245;-70
2024/01/07 01:20:44;;;;;;;6.75;5.22;;;0.60;99.90;;;;;;4968886;28;20207;-70
2024/01/07 01:23:11;;;;;;;6.50;5.20;;;0.60;99.90;;;;;;4976084;28;20265;-69
2024/01/07 01:25:39;;;;;;;8.13;5.40;;;0.50;99.90;;;;;;4976466;28;20732;-70
2024/01/07 01:28:06;;;;;;;8.35;5.68;;;0.40;99.90;;;;;;4976463;28;20210;-70
2024/01/07 01:30:35;;;;;;;9.75;5.45;;;0.40;99.90;;;;;;4972327;28;20556;-71
2024/01/07 01:33:02;;;;;;;6.43;5.60;;;0.30;99.90;;;;;;4971733;28;20219;-71
2024/01/07 01:35:29;;;;;;;12.48;5.85;;;0.40;99.90;;;;;;4976748;28;20230;-70
2024/01/07 01:37:56;;;;;;;8.43;6.65;;;0.30;99.90;;;;;;4971696;28;20207;-70
2024/01/07 01:40:23;;;;;;;8.43;5.00;;;0.30;99.90;;;;;;4968717;28;20579;-69
2024/01/07 01:42:50;;;;;;;9.52;6.55;;;0.20;99.90;;;;;;4972488;28;20326;-70
2024/01/07 01:45:18;;;;;;;14.40;6.88;;;0.20;99.90;;;;;;4972996;28;20638;-70
2024/01/07 01:47:48;;;;;;;8.13;6.38;;;0.20;99.90;;;;;;4975746;28;20225;-70
2024/01/07 01:50:15;;;;;;;13.15;6.68;;;0.20;99.90;;;;;;4973142;28;20206;-70
2024/01/07 01:52:44;;;;;;;9.23;7.43;;;0.20;99.90;;;;;;4971687;28;20223;-69
2024/01/07 01:55:11;;;;;;;12.63;8.25;;;0.20;99.90;;;;;;4972345;28;20226;-70
2024/01/07 01:57:40;;;;;;;13.85;8.00;;;0.20;99.90;;;;;;4972832;28;20234;-70
2024/01/07 02:00:08;;;;;;;18.50;7.53;;;0.20;99.90;;;;;;4974698;28;20692;-70
2024/01/07 02:02:35;;;;;;;12.73;7.28;;;0.20;99.90;;;;;;4973063;28;20234;-71
2024/01/07 02:05:04;;;;;;;11.98;7.88;;;0.30;99.90;;;;;;4975540;28;20207;-70
2024/01/07 02:07:32;;;;;;;9.82;6.85;;;0.20;99.90;;;;;;4975381;28;20269;-71
2024/01/07 02:10:00;;;;;;;12.23;8.35;;;0.20;99.90;;;;;;4973666;28;20232;-69
2024/01/07 02:12:27;;;;;;;10.57;7.50;;;0.30;99.90;;;;;;4970071;28;20525;-70
2024/01/07 02:14:54;;;;;;;7.90;7.10;;;0.30;99.90;;;;;;4974822;28;20235;-70
2024/01/07 02:17:21;;;;;;;8.85;7.20;;;0.30;99.90;;;;;;4975581;28;20203;-69
2024/01/07 02:19:48;;;;;;;7.75;5.90;;;0.30;99.90;;;;;;4973933;28;20731;-70
2024/01/07 02:22:16;;;;;;;6.45;5.28;;;0.30;99.90;;;;;;4967121;28;20251;-70
2024/01/07 02:24:45;;;;;;;7.35;6.07;;;0.40;99.90;;;;;;4973164;28;20297;-69
2024/01/07 02:27:12;;;;;;;6.63;5.47;;;0.30;99.90;;;;;;4969397;28;20246;-69
2024/01/07 02:29:39;;;;;;;5.47;4.35;;;0.30;99.90;;;;;;4974538;28;20692;-70
2024/01/07 02:32:07;;;;;;;6.43;4.57;;;0.30;99.90;;;;;;4973065;28;20226;-69
2024/01/07 02:34:33;;;;;;;7.32;3.70;;;0.40;99.90;;;;;;4975234;28;20207;-70
2024/01/07 02:37:00;;;;;;;8.52;3.85;;;0.40;99.90;;;;;;4974291;28;20203;-69
2024/01/07 02:39:27;;;;;;;4.22;3.65;;;0.40;99.90;;;;;;4969126;28;20689;-68
2024/01/07 02:41:56;;;;;;;7.38;4.60;;;0.50;99.90;;;;;;4974379;28;20407;-69
2024/01/07 02:44:23;;;;;;;5.93;3.65;;;0.50;99.90;;;;;;4971207;28;20298;-70
2024/01/07 02:46:50;;;;;;;4.85;3.55;;;0.50;99.90;;;;;;4974553;28;20325;-69
2024/01/07 02:49:16;;;;;;;7.07;3.75;;;0.60;99.90;;;;;;4974052;28;20579;-69
2024/01/07 02:51:45;;;;;;;3.50;3.20;;;0.60;99.90;;;;;;4974310;28;20281;-70
2024/01/07 02:54:12;;;;;;;3.92;3.47;;;0.60;99.90;;;;;;4966897;28;20245;-70
2024/01/07 02:57:13;;;;;;;6.63;4.15;;;0.60;99.90;;;;;;4974847;28;20258;-70
2024/01/07 02:59:42;;;;;;;4.30;3.47;;;0.70;99.90;;;;;;4975197;28;20253;-69
2024/01/07 03:02:09;;;;;;;5.15;4.10;;;0.60;99.90;;;;;;4972697;28;20235;-69
2024/01/07 03:04:36;;;;;;;5.45;3.60;;;0.60;99.90;;;;;;4974176;28;20230;-70
2024/01/07 03:07:03;;;;;;;5.32;3.85;;;0.60;99.90;;;;;;4974766;28;20244;-70
2024/01/07 03:09:30;;;;;;;4.13;3.72;;;0.50;99.90;;;;;;4973846;28;20282;-70
2024/01/07 03:11:56;;;;;;;6.88;2.92;;;0.50;99.90;;;;;;4974064;28;20253;-70
2024/01/07 03:14:23;;;;;;;5.70;3.20;;;0.60;99.90;;;;;;4974238;28;20214;-69
2024/01/07 03:16:52;;;;;;;4.40;3.00;;;0.60;99.90;;;;;;4966721;28;20289;-70
2024/01/07 03:19:20;;;;;;;8.27;2.85;;;0.60;99.90;;;;;;4967043;28;20242;-70
2024/01/07 03:21:48;;;;;;;7.88;4.20;;;0.60;99.90;;;;;;4971995;28;20226;-70
2024/01/07 03:24:16;;;;;;;4.97;3.72;;;0.60;99.90;;;;;;4972097;28;20206;-70
2024/01/07 03:26:43;;;;;;;4.55;3.25;;;0.60;99.90;;;;;;4966467;28;20721;-71
2024/01/07 03:29:10;;;;;;;4.95;4.25;;;0.70;99.90;;;;;;4968549;28;20207;-69
2024/01/07 03:31:37;;;;;;;6.13;2.78;;;0.70;99.90;;;;;;4965506;28;20579;-70
2024/01/07 03:34:06;;;;;;;3.70;3.30;;;0.80;99.90;;;;;;4970263;28;20282;-71
2024/01/07 03:36:33;;;;;;;9.45;3.90;;;0.70;99.90;;;;;;4973997;28;21003;-70
2024/01/07 03:39:00;;;;;;;4.35;3.10;;;0.60;99.90;;;;;;4971872;28;20239;-70
2024/01/07 03:41:27;;;;;;;8.13;3.78;;;0.60;99.90;;;;;;4972883;28;20227;-70
2024/01/07 03:43:54;;;;;;;6.05;3.63;;;0.70;99.90;;;;;;4970367;28;20238;-70
2024/01/07 03:46:21;;;;;;;3.58;2.80;;;0.70;99.90;;;;;;4968119;28;20677;-69
2024/01/07 03:48:48;;;;;;;4.05;3.05;;;0.70;99.90;;;;;;4972901;28;20269;-69
2024/01/07 03:51:16;;;;;;;4.40;3.42;;;0.60;99.90;;;;;;4972857;28;20245;-72
2024/01/07 03:53:43;;;;;;;4.15;2.90;;;0.70;99.90;;;;;;4971819;28;20666;-70
2024/01/07 03:56:10;;;;;;;2.28;1.80;;;0.70;99.90;;;;;;4970477;28;20203;-70
2024/01/07 03:58:37;;;;;;;3.28;2.72;;;0.70;99.90;;;;;;4973498;28;20261;-69
2024/01/07 04:01:04;;;;;;;2.65;2.05;;;0.70;99.90;;;;;;4972867;28;20226;-69
2024/01/07 04:03:31;;;;;;;3.40;2.45;;;0.70;99.90;;;;;;4973066;28;20232;-70
2024/01/07 04:05:58;;;;;;;4.28;3.30;;;0.70;99.90;;;;;;4972997;28;20681;-70
2024/01/07 04:08:27;;;;;;;3.28;2.97;;;0.60;99.90;;;;;;4973749;28;20203;-70
2024/01/07 04:10:54;;;;;;;4.32;2.95;;;0.60;99.90;;;;;;4972091;28;20222;-70
2024/01/07 04:13:21;;;;;;;6.38;2.45;;;0.60;99.90;;;;;;4973301;28;20215;-69
2024/01/07 04:15:48;;;;;;;3.20;2.60;;;0.60;99.90;;;;;;4966851;28;20273;-70
2024/01/07 04:18:14;;;;;;;2.72;2.25;;;0.60;99.90;;;;;;4972528;28;20665;-69
2024/01/07 04:20:41;;;;;;;4.70;2.40;;;0.60;99.90;;;;;;4971786;28;20238;-69
2024/01/07 04:23:08;;;;;;;11.73;4.25;;;0.60;99.90;;;;;;4972831;28;20238;-70
2024/01/07 04:25:37;;;;;;;3.25;2.50;;;0.60;99.90;;;;;;4960921;28;20227;-70
2024/01/07 04:28:05;;;;;;;5.15;2.28;;;0.50;99.90;;;;;;4973241;28;20222;-70
2024/01/07 04:30:32;;;;;;;2.67;2.45;;;0.50;99.90;;;;;;4971507;28;20203;-69
2024/01/07 04:32:58;;;;;;;3.85;2.90;;;0.40;99.90;;;;;;4973019;28;20709;-70
2024/01/07 04:35:25;;;;;;;3.28;2.05;;;0.30;99.90;;;;;;4971110;28;20211;-70
2024/01/07 04:37:52;;;;;;;3.60;2.20;;;0.40;99.90;;;;;;4968076;28;20646;-69
2024/01/07 04:40:19;;;;;;;3.45;2.65;;;0.40;99.90;;;;;;4976583;28;20234;-68
2024/01/07 04:42:48;;;;;;;3.53;2.20;;;0.40;99.90;;;;;;4976072;28;20231;-70
2024/01/07 04:45:15;;;;;;;4.63;2.92;;;0.40;99.90;;;;;;4976263;28;20234;-69
2024/01/07 04:47:42;;;;;;;2.17;1.90;;;0.50;99.90;;;;;;4976762;28;20222;-70
2024/01/07 04:50:09;;;;;;;3.50;2.40;;;0.30;99.90;;;;;;4976251;28;20267;-70
2024/01/07 04:52:36;;;;;;;3.40;2.60;;;0.30;99.90;;;;;;4974627;28;20262;-69
2024/01/07 04:55:03;;;;;;;4.00;2.67;;;0.30;99.90;;;;;;4977642;28;20650;-69
2024/01/07 04:57:30;;;;;;;4.07;2.53;;;0.30;99.90;;;;;;4976292;28;20231;-70
2024/01/07 04:59:58;;;;;;;3.10;2.20;;;0.20;99.90;;;;;;4974755;28;20198;-70
2024/01/07 05:02:25;;;;;;;3.47;2.38;;;0.10;99.90;;;;;;4972158;28;20226;-68
2024/01/07 05:04:52;;;;;;;2.47;1.67;;;0.10;99.90;;;;;;4973997;28;20230;-69
2024/01/07 05:07:19;;;;;;;6.78;2.00;;;0.00;99.90;;;;;;4971864;28;20277;-70
2024/01/07 05:09:46;;;;;;;2.38;1.88;;;0.00;99.90;;;;;;4975624;28;20203;-70
2024/01/07 05:12:13;;;;;;;2.63;1.70;;;0.00;99.90;;;;;;4972366;28;20261;-72
2024/01/07 05:14:42;;;;;;;3.03;2.50;;;0.00;99.90;;;;;;4970895;28;20266;-70
2024/01/07 05:17:11;;;;;;;4.80;2.28;;;-0.10;99.90;;;;;;4976379;28;20238;-70
2024/01/07 05:19:40;;;;;;;2.30;2.10;;;-0.10;99.90;;;;;;4968090;28;20269;-70
2024/01/07 05:22:07;;;;;;;3.80;2.35;;;-0.10;99.90;;;;;;4973649;28;20596;-70
2024/01/07 05:24:34;;;;;;;6.78;3.47;;;-0.10;99.90;;;;;;4976726;28;20242;-69
2024/01/07 05:27:01;;;;;;;2.28;2.08;;;-0.10;99.90;;;;;;4974234;28;20227;-70
2024/01/07 05:29:28;;;;;;;3.50;2.90;;;-0.10;99.90;;;;;;4975130;28;20670;-69
2024/01/07 05:31:55;;;;;;;4.43;2.75;;;-0.10;99.90;;;;;;4973402;28;20277;-69
2024/01/07 05:34:23;;;;;;;6.07;3.60;;;-0.10;99.90;;;;;;4976455;28;20556;-69
2024/01/07 05:36:50;;;;;;;3.17;2.20;;;-0.10;99.90;;;;;;4968273;28;20674;-70
2024/01/07 05:39:17;;;;;;;2.47;2.25;;;-0.10;99.90;;;;;;4966637;28;20265;-70
2024/01/07 05:41:44;;;;;;;7.60;2.35;;;-0.20;99.90;;;;;;4962205;28;20306;-69
2024/01/07 05:44:12;;;;;;;3.88;2.42;;;-0.20;99.90;;;;;;4964167;28;20215;-69
2024/01/07 05:46:40;;;;;;;3.65;2.35;;;-0.20;99.90;;;;;;4975573;28;20276;-70
2024/01/07 05:49:07;;;;;;;4.45;2.63;;;-0.10;99.90;;;;;;4974279;28;20285;-70
2024/01/07 05:51:40;;;;;;;2.95;1.95;;;-0.10;99.90;;;;;;4975231;28;20761;-70
2024/01/07 05:54:06;;;;;;;6.80;2.55;;;-0.10;99.90;;;;;;4975776;28;20218;-70
2024/01/07 05:56:38;;;;;;;6.63;2.10;;;-0.10;99.90;;;;;;4975972;28;20253;-70
2024/01/07 05:59:05;;;;;;;3.22;2.55;;;0.00;99.90;;;;;;4972286;28;20204;-69
2024/01/07 06:01:32;;;;;;;3.03;2.28;;;0.00;99.90;;;;;;4967050;28;20633;-69
2024/01/07 06:03:59;;;;;;;3.08;2.25;;;0.00;99.90;;;;;;4969620;28;20739;-69
2024/01/07 06:06:26;;;;;;;3.72;2.03;;;0.10;99.90;;;;;;4975451;28;20257;-70
2024/01/07 06:08:55;;;;;;;2.20;2.00;;;0.10;99.90;;;;;;4974641;28;20251;-69
2024/01/07 06:11:22;;;;;;;3.50;2.50;;;0.20;99.90;;;;;;4971884;28;20708;-69
2024/01/07 06:13:48;;;;;;;5.18;2.42;;;0.30;99.90;;;;;;4973557;28;20735;-71
2024/01/07 06:16:15;;;;;;;4.40;2.20;;;0.40;99.90;;;;;;4975712;28;20242;-70
2024/01/07 06:18:42;;;;;;;2.30;1.85;;;0.40;99.90;;;;;;4974225;28;20210;-70
2024/01/07 06:21:09;;;;;;;2.67;2.17;;;0.50;99.90;;;;;;4974283;28;20246;-70
2024/01/07 06:23:36;;;;;;;8.00;1.85;;;0.40;99.90;;;;;;4973901;28;20250;-70
2024/01/07 06:26:06;;;;;;;3.50;2.90;;;0.50;99.90;;;;;;4967047;28;20207;-69
2024/01/07 06:28:33;;;;;;;2.92;2.45;;;0.50;99.90;;;;;;4973153;28;20258;-69
2024/01/07 06:31:03;;;;;;;2.67;2.00;;;0.40;99.90;;;;;;4970843;28;20213;-69
2024/01/07 06:33:30;;;;;;;2.92;2.47;;;0.50;99.90;;;;;;4974525;28;20736;-70
2024/01/07 06:35:57;;;;;;;3.42;1.80;;;0.50;99.90;;;;;;4974817;28;20210;-69
2024/01/07 06:38:24;;;;;;;2.40;2.05;;;0.50;99.90;;;;;;4975279;28;20203;-69
2024/01/07 06:40:54;;;;;;;2.80;2.42;;;0.50;99.90;;;;;;4971796;28;20206;-69
2024/01/07 06:43:22;;;;;;;4.15;2.13;;;0.50;99.90;;;;;;4974328;28;20234;-70
2024/01/07 06:45:50;;;;;;;4.93;2.33;;;0.60;99.90;;;;;;4968540;28;20212;-70
2024/01/07 06:48:17;;;;;;;2.67;2.05;;;0.70;99.90;;;;;;4974712;28;20262;-70
2024/01/07 06:50:44;;;;;;;4.65;2.25;;;0.80;99.90;;;;;;4973107;28;20245;-70
2024/01/07 06:53:11;;;;;;;3.22;2.13;;;0.80;99.90;;;;;;4971515;28;20218;-69
2024/01/07 06:55:38;;;;;;;2.95;2.10;;;0.90;99.90;;;;;;4974272;28;20552;-70
2024/01/07 06:58:05;;;;;;;5.82;2.60;;;0.90;99.90;;;;;;4968901;28;20270;-70
2024/01/07 07:00:34;;;;;;;4.35;2.50;;;0.90;99.90;;;;;;4969809;28;20670;-69
2024/01/07 07:03:01;;;;;;;3.65;2.47;;;0.90;99.90;;;;;;4972535;28;20597;-70
2024/01/07 07:05:27;;;;;;;3.03;2.10;;;0.90;99.90;;;;;;4972550;28;20959;-70
2024/01/07 07:07:54;;;;;;;3.92;2.58;;;0.90;99.90;;;;;;4967138;28;20251;-69
2024/01/07 07:10:22;;;;;;;4.10;2.40;;;0.90;99.90;;;;;;4973247;28;20239;-70
2024/01/07 07:12:50;;;;;;;3.30;2.55;;;0.90;99.90;;;;;;4971429;28;20226;-72
2024/01/07 07:15:17;;;;;;;4.28;2.13;;;1.00;99.90;;;;;;4972205;28;20206;-71
2024/01/07 07:17:45;;;;;;;3.30;2.20;;;1.10;99.90;;;;;;4973425;28;20242;-71
2024/01/07 07:20:12;;;;;;;4.22;2.20;;;1.10;99.90;;;;;;4968384;28;20243;-70
2024/01/07 07:22:40;;;;;;;2.40;2.00;;;1.10;99.90;;;;;;4963742;28;20227;-71
2024/01/07 07:25:08;;;;;;;4.43;2.17;;;1.10;99.90;;;;;;4973591;28;20199;-72
2024/01/07 07:27:35;;;;;;;3.17;2.30;;;1.10;99.90;;;;;;4971914;28;20234;-71
2024/01/07 07:30:02;;;;;;;4.05;2.00;;;1.20;99.90;;;;;;4968036;28;20210;-71
2024/01/07 07:32:29;;;;;;;10.38;2.08;;;1.10;99.90;;;;;;4967633;28;20231;-71
2024/01/07 07:34:57;;;;;;;2.20;1.80;;;1.10;99.90;;;;;;4972371;28;20199;-72
2024/01/07 07:37:25;;;;;;;5.68;2.40;;;1.20;99.90;;;;;;4973880;28;20203;-70
2024/01/07 07:39:52;;;;;;;4.05;2.72;;;1.20;99.90;;;;;;4969038;28;20206;-73
2024/01/07 07:42:19;;;;;;;3.40;2.03;;;1.20;99.90;;;;;;4971878;28;20254;-70
2024/01/07 07:44:47;;;;;;;5.50;2.25;;;1.30;99.90;;;;;;4973038;28;20239;-72
2024/01/07 07:47:15;;;;;;;3.20;2.47;;;1.40;99.90;;;;;;4971168;28;20294;-69
2024/01/07 07:49:42;;;;;;;6.15;2.55;;;1.40;99.90;;;;;;4961622;28;20737;-71
2024/01/07 07:52:11;;;;;;;6.10;2.38;;;1.50;99.90;;;;;;4971212;28;20282;-72
2024/01/07 07:54:38;;;;;;;2.83;1.95;;;1.60;99.90;;;;;;4972908;28;20598;-71
2024/01/07 07:57:05;;;;;;;10.32;2.97;;;1.50;99.90;;;;;;4971280;28;20215;-71
2024/01/07 07:59:32;;;;;;;6.10;2.88;;;1.50;99.90;;;;;;4965927;28;20199;-70
2024/01/07 08:02:00;;;;;;;2.83;1.70;;;1.50;99.90;;;;;;4973232;28;20227;-70
2024/01/07 08:04:27;;;;;;;2.55;1.80;;;1.50;99.90;;;;;;4972745;28;20286;-72
2024/01/07 08:06:56;;;;;;;3.55;2.55;;;1.50;99.90;;;;;;4974249;28;20210;-70
2024/01/07 08:09:24;;;;;;;2.45;2.25;;;1.40;99.90;;;;;;4964290;28;20234;-70
2024/01/07 08:11:51;;;;;;;2.45;2.20;;;1.40;99.90;;;;;;4972132;28;20277;-71
2024/01/07 08:14:19;;;;;;;3.38;2.80;;;1.50;99.90;;;;;;4971837;28;20210;-70
2024/01/07 08:16:45;;;;;;;3.53;2.83;;;1.40;99.90;;;;;;4964627;28;20202;-72
2024/01/07 08:19:13;;;;;;;5.47;2.47;;;1.50;99.90;;;;;;4965370;28;20219;-71
2024/01/07 08:21:40;;;;;;;3.85;2.28;;;1.60;99.90;;;;;;4969723;28;20315;-71
2024/01/07 08:24:07;;;;;;;3.40;3.10;;;1.70;99.90;;;;;;4970614;28;20666;-71
2024/01/07 08:26:35;;;;;;;4.05;2.38;;;1.70;99.90;;;;;;4968751;28;20218;-72
2024/01/07 08:29:03;;;;;;;2.95;2.10;;;1.80;99.90;;;;;;4971040;28;20266;-71
2024/01/07 08:31:31;;;;;;;4.60;2.90;;;1.90;99.90;;;;;;4973153;28;20614;-71
2024/01/07 08:33:58;;;;;;;12.95;4.05;;;1.90;99.90;;;;;;4972002;28;20587;-72
2024/01/07 08:36:26;;;;;;;7.10;4.88;;;2.20;99.90;;;;;;4972595;28;20225;-71
2024/01/07 08:38:52;;;;;;;10.05;3.50;;;2.60;99.90;;;;;;4972619;28;20258;-71
2024/01/07 08:41:24;;;;;;;2.55;2.35;;;2.80;99.90;;;;;;4966357;28;20705;-71
2024/01/07 08:43:52;;;;;;;3.28;2.42;;;3.10;99.90;;;;;;4964765;28;20210;-70
2024/01/07 08:46:21;;;;;;;3.70;2.95;;;3.10;99.90;;;;;;4968703;28;20262;-69
2024/01/07 08:48:48;;;;;;;3.35;1.92;;;3.50;99.90;;;;;;4972684;28;20230;-70
2024/01/07 08:51:15;;;;;;;3.60;1.92;;;3.70;99.90;;;;;;4972057;28;20235;-71
2024/01/07 08:53:42;;;;;;;2.88;1.95;;;3.70;99.90;;;;;;4972356;28;20218;-69
2024/01/07 08:56:09;;;;;;;3.83;2.75;;;3.70;99.90;;;;;;4965087;28;20696;-69
2024/01/07 08:58:37;;;;;;;6.15;3.35;;;3.90;99.90;;;;;;4964386;28;20257;-71
2024/01/07 09:01:05;;;;;;;3.15;2.40;;;3.90;99.90;;;;;;4970281;28;20215;-68
2024/01/07 09:03:32;;;;;;;2.72;1.83;;;4.00;99.90;;;;;;4972672;28;20247;-72
2024/01/07 09:05:59;;;;;;;3.28;2.42;;;4.10;99.90;;;;;;4966120;28;20691;-71
2024/01/07 09:08:26;;;;;;;4.53;2.55;;;4.00;99.90;;;;;;4972665;28;20701;-70
2024/01/07 09:10:53;;;;;;;6.05;2.92;;;4.10;99.90;;;;;;4971823;28;20259;-71
2024/01/07 09:13:20;;;;;;;4.90;2.60;;;4.20;99.90;;;;;;4961312;28;20592;-70
2024/01/07 09:15:47;;;;;;;2.85;1.98;;;4.30;99.90;;;;;;4962168;28;20211;-72
2024/01/07 09:18:15;;;;;;;3.53;3.22;;;4.30;99.90;;;;;;4964530;28;20269;-71
2024/01/07 09:20:43;;;;;;;2.78;2.00;;;4.20;99.90;;;;;;4969269;28;20253;-70
2024/01/07 09:23:10;;;;;;;6.13;2.70;;;4.30;99.90;;;;;;4966975;28;20227;-71
2024/01/07 09:25:37;;;;;;;5.15;2.28;;;4.30;99.90;;;;;;4974050;28;20202;-69
2024/01/07 09:28:05;;;;;;;2.55;2.05;;;4.30;99.90;;;;;;4968386;28;20254;-72
2024/01/07 09:30:33;;;;;;;3.42;2.35;;;4.40;99.90;;;;;;4975392;28;20199;-70
2024/01/07 09:33:00;;;;;;;3.35;2.67;;;4.50;99.90;;;;;;4967765;28;20254;-70
2024/01/07 09:35:28;;;;;;;4.65;2.35;;;4.50;99.90;;;;;;4974874;28;20203;-70
2024/01/07 09:37:55;;;;;;;3.83;2.85;;;4.60;99.90;;;;;;4976043;28;20210;-71
2024/01/07 09:40:22;;;;;;;4.07;2.65;;;4.70;99.90;;;;;;4975000;28;20199;-71
2024/01/07 09:42:51;;;;;;;3.95;2.88;;;5.00;99.90;;;;;;4973255;28;20219;-71
2024/01/07 09:45:19;;;;;;;6.05;2.80;;;5.10;99.90;;;;;;4967781;28;20292;-70
2024/01/07 09:47:46;;;;;;;3.33;3.03;;;5.20;99.90;;;;;;4975886;28;20559;-72
2024/01/07 09:50:13;;;;;;;7.18;2.75;;;5.90;99.90;;;;;;4968604;28;20266;-69
2024/01/07 09:52:45;;;;;;;4.88;2.75;;;6.40;99.90;;;;;;4975985;28;20230;-69
2024/01/07 09:55:20;;;;;;;4.70;2.47;;;7.10;99.90;;;;;;4969737;28;20634;-72
2024/01/07 09:57:47;;;;;;;5.50;3.95;;;8.00;99.90;;;;;;4974363;28;20206;-69
2024/01/07 10:00:14;;;;;;;5.30;3.33;;;9.00;99.00;;;;;;4975454;28;20575;-73
2024/01/07 10:02:42;;;;;;;6.40;3.05;;;9.60;96.60;;;;;;4972681;28;20231;-71
2024/01/07 10:05:09;;;;;;;4.68;4.20;;;10.10;95.20;;;;;;4975898;28;20266;-71
2024/01/07 10:07:36;;;;;;;3.13;2.83;;;10.90;94.10;;;;;;4976136;28;20236;-71
2024/01/07 10:10:16;;;;;;;5.90;4.20;;;11.60;93.00;;;;;;4974624;28;20336;-70
2024/01/07 10:12:46;;;;;;;4.70;3.40;;;11.90;91.10;;;;;;4975517;28;20304;-69
2024/01/07 10:15:13;;;;;;;7.40;4.75;;;12.00;90.70;;;;;;4975451;28;20203;-70
2024/01/07 10:17:42;;;;;;;4.85;3.15;;;12.20;92.30;;;;;;4975482;28;20217;-69
2024/01/07 10:20:12;;;;;;;4.63;3.90;;;12.00;90.60;;;;;;4974537;28;20210;-70
2024/01/07 10:22:40;;;;;;;7.90;4.00;;;11.80;90.20;;;;;;4972853;28;20589;-67
2024/01/07 10:25:07;;;;;;;5.45;4.88;;;11.50;90.00;;;;;;4975423;28;20257;-69
2024/01/07 10:27:37;;;;;;;6.00;3.92;;;11.20;90.20;;;;;;4975228;28;20261;-69
2024/01/07 10:30:06;;;;;;;5.30;4.20;;;10.90;90.40;;;;;;4974504;28;20225;-68
2024/01/07 10:32:33;;;;;;;7.90;3.80;;;10.50;90.40;;;;;;4974957;28;20285;-70
2024/01/07 10:35:04;;;;;;;6.43;4.85;;;9.80;91.50;;;;;;4975282;28;20234;-71
2024/01/07 10:37:31;;;;;;;5.80;4.50;;;9.20;92.20;;;;;;4974666;28;20214;-70
2024/01/07 10:40:02;;;;;;;6.38;4.03;;;8.90;93.10;;;;;;4974496;28;20285;-71
2024/01/07 10:42:31;;;;;;;10.70;4.40;;;8.40;93.50;;;;;;4974959;28;20226;-71
2024/01/07 10:45:00;;;;;;;8.93;4.53;;;8.00;94.00;;;;;;4973004;28;20217;-71
2024/01/07 10:47:31;;;;;;;4.00;3.40;;;7.70;94.90;;;;;;4972101;28;20211;-70
2024/01/07 10:49:59;;;;;;;5.22;3.42;;;7.20;95.10;;;;;;4974439;28;20226;-70
2024/01/07 10:52:28;;;;;;;9.68;4.13;;;7.10;96.00;;;;;;4974481;28;20245;-70
2024/01/07 10:54:57;;;;;;;6.22;3.97;;;6.80;96.30;;;;;;4967037;28;20596;-71
2024/01/07 10:57:35;;;;;;;12.13;5.35;;;6.60;96.80;;;;;;4974956;28;20261;-71
2024/01/07 11:00:07;;;;;;;6.07;4.30;;;6.40;97.50;;;;;;4973803;28;20268;-71
2024/01/07 11:02:41;;;;;;;6.65;4.30;;;6.30;97.90;;;;;;4974652;28;20642;-70
2024/01/07 11:05:18;;;;;;;5.10;4.00;;;6.10;98.20;;;;;;4974450;28;20202;-70
2024/01/07 11:07:53;;;;;;;7.60;4.28;;;5.90;98.30;;;;;;4973129;28;20736;-68
2024/01/07 11:10:26;;;;;;;7.40;5.18;;;5.60;98.90;;;;;;4982004;28;20709;-71
2024/01/07 11:12:55;;;;;;;5.75;4.00;;;5.40;99.40;;;;;;4973677;28;20265;-70
2024/01/07 11:15:54;;;;;;;5.63;4.20;;;5.40;99.90;;;;;;4969640;28;20295;-67
2024/01/07 11:18:22;;;;;;;7.70;4.20;;;5.10;99.80;;;;;;4970039;28;20203;-69
2024/01/07 11:20:50;;;;;;;6.55;4.50;;;4.70;99.90;;;;;;4968995;28;20214;-70
2024/01/07 11:23:32;;;;;;;7.97;4.95;;;4.40;99.90;;;;;;4969219;28;20222;-70
2024/01/07 11:26:00;;;;;;;7.68;5.10;;;4.20;99.90;;;;;;4974740;28;20624;-69
2024/01/07 11:28:49;;;;;;;7.40;4.88;;;4.20;99.90;;;;;;4974174;28;20262;-69
2024/01/07 11:31:18;;;;;;;5.95;4.00;;;4.30;99.90;;;;;;4969793;28;20207;-69
2024/01/07 11:33:48;;;;;;;5.43;3.45;;;4.20;99.90;;;;;;4973701;28;20253;-71
2024/01/07 11:36:15;;;;;;;5.15;3.58;;;4.20;99.90;;;;;;4973973;28;20242;-72
2024/01/07 11:38:43;;;;;;;5.63;4.38;;;4.20;99.90;;;;;;4974173;28;20262;-70
2024/01/07 11:41:13;;;;;;;9.35;5.20;;;4.10;99.90;;;;;;4968363;28;20744;-71
2024/01/07 11:43:52;;;;;;;5.50;4.43;;;3.80;99.90;;;;;;4973868;28;20640;-69
2024/01/07 11:46:21;;;;;;;6.32;4.10;;;3.70;99.90;;;;;;4963085;28;20234;-70
2024/01/07 11:48:48;;;;;;;5.30;4.38;;;3.70;99.90;;;;;;4970040;28;20230;-69
2024/01/07 11:51:16;;;;;;;7.13;5.30;;;3.70;99.90;;;;;;4966576;28;20214;-69
2024/01/07 11:53:46;;;;;;;7.20;3.80;;;3.70;99.90;;;;;;4972874;28;20531;-70
2024/01/07 11:56:13;;;;;;;6.97;4.22;;;3.70;99.90;;;;;;4971886;28;20222;-71
2024/01/07 11:58:41;;;;;;;6.55;4.97;;;3.70;99.90;;;;;;4974081;28;20577;-71
2024/01/07 12:01:08;;;;;;;6.20;3.50;;;3.70;99.90;;;;;;4971930;28;20290;-69
2024/01/07 12:03:38;;;;;;;5.45;4.38;;;3.60;99.90;;;;;;4969413;28;20261;-70
2024/01/07 12:06:05;;;;;;;5.13;3.67;;;3.70;99.90;;;;;;4973574;28;20194;-68
2024/01/07 12:08:32;;;;;;;7.50;4.55;;;3.50;99.90;;;;;;4972924;28;20291;-71
2024/01/07 12:11:03;;;;;;;4.07;3.60;;;3.30;99.90;;;;;;4972971;28;20325;-69
2024/01/07 12:13:31;;;;;;;5.10;3.95;;;3.20;99.90;;;;;;4973902;28;20755;-68
2024/01/07 12:15:58;;;;;;;5.97;3.25;;;3.20;99.90;;;;;;4965146;28;20230;-68
2024/01/07 12:18:26;;;;;;;4.60;3.80;;;3.20;99.90;;;;;;4973466;28;20207;-69
2024/01/07 12:20:58;;;;;;;6.82;4.10;;;3.10;99.90;;;;;;4969373;28;20226;-68
2024/01/07 12:23:25;;;;;;;7.35;4.88;;;3.10;99.90;;;;;;4964725;28;20242;-70
2024/01/07 12:25:52;;;;;;;6.00;4.00;;;3.00;99.90;;;;;;4962775;28;20231;-71
2024/01/07 12:28:20;;;;;;;4.93;4.35;;;3.00;99.90;;;;;;4972614;28;20199;-70
2024/01/07 12:30:49;;;;;;;4.85;3.50;;;2.90;99.90;;;;;;4971931;28;20752;-70
2024/01/07 12:33:20;;;;;;;10.18;3.17;;;2.90;99.90;;;;;;4968502;28;20264;-70
2024/01/07 12:35:47;;;;;;;5.80;4.32;;;2.70;99.90;;;;;;4973024;28;20217;-70
2024/01/07 12:38:16;;;;;;;6.97;4.28;;;2.80;99.90;;;;;;4970308;28;20201;-68
2024/01/07 12:40:43;;;;;;;5.68;3.92;;;2.80;99.90;;;;;;4972225;28;20203;-70
2024/01/07 12:43:10;;;;;;;6.90;4.30;;;2.80;99.90;;;;;;4973110;28;20223;-67
2024/01/07 12:45:37;;;;;;;6.10;4.07;;;2.80;99.90;;;;;;4972963;28;20211;-70
2024/01/07 12:48:04;;;;;;;4.28;3.80;;;2.80;99.90;;;;;;4972750;28;20215;-69
2024/01/07 12:50:32;;;;;;;6.95;3.88;;;2.80;99.90;;;;;;4972526;28;20297;-69
2024/01/07 12:53:00;;;;;;;6.00;3.50;;;2.70;99.90;;;;;;4965658;28;20223;-69
2024/01/07 12:55:29;;;;;;;7.45;4.32;;;2.80;99.90;;;;;;4965026;28;20203;-67
2024/01/07 12:57:56;;;;;;;5.68;4.15;;;2.70;99.90;;;;;;4972395;28;20217;-67
2024/01/07 13:00:25;;;;;;;5.55;4.25;;;2.70;99.90;;;;;;4974625;28;20210;-71